sensor_id;sensor_type;location;lat;lon;timestamp;pressure;altitude;pressure_sealevel;temperature;humidity
57376;BME280;44805;45.048;5.062;2023-05-16T00:01:49;99293.97;;;13.78;87.09
57376;BME280;44805;45.048;5.062;2023-05-16T00:04:15;99283.81;;;13.52;87.66
57376;BME280;44805;45.048;5.062;2023-05-16T00:06:41;99278.22;;;13.47;87.75
57376;BME280;44805;45.048;5.062;2023-05-16T00:09:07;99305.91;;;13.59;88.75
57376;BME280;44805;45.048;5.062;2023-05-16T00:11:32;99366.41;;;14.00;87.73
57376;BME280;44805;45.048;5.062;2023-05-16T00:13:57;99351.00;;;13.81;88.15
57376;BME280;44805;45.048;5.062;2023-05-16T00:16:23;99336.69;;;13.75;88.76
57376;BME280;44805;45.048;5.062;2023-05-16T00:18:50;99351.00;;;13.81;89.48
57376;BME280;44805;45.048;5.062;2023-05-16T00:21:16;99351.66;;;13.83;88.77
57376;BME280;44805;45.048;5.062;2023-05-16T00:23:42;99341.16;;;13.75;88.99
57376;BME280;44805;45.048;5.062;2023-05-16T00:26:08;99340.13;;;13.76;89.40
57376;BME280;44805;45.048;5.062;2023-05-16T00:28:34;99320.03;;;13.52;89.49
57376;BME280;44805;45.048;5.062;2023-05-16T00:30:59;99320.41;;;13.63;88.65
57376;BME280;44805;45.048;5.062;2023-05-16T00:33:24;99338.50;;;13.75;88.02
57376;BME280;44805;45.048;5.062;2023-05-16T00:35:50;99302.63;;;13.57;88.14
57376;BME280;44805;45.048;5.062;2023-05-16T00:38:18;99347.03;;;13.85;87.77
57376;BME280;44805;45.048;5.062;2023-05-16T00:40:43;99350.06;;;13.74;89.00
57376;BME280;44805;45.048;5.062;2023-05-16T00:43:08;99312.38;;;13.57;88.30
57376;BME280;44805;45.048;5.062;2023-05-16T00:45:34;99319.78;;;13.61;88.39
57376;BME280;44805;45.048;5.062;2023-05-16T00:47:59;99361.59;;;13.81;88.55
57376;BME280;44805;45.048;5.062;2023-05-16T00:50:25;99372.09;;;13.89;88.21
57376;BME280;44805;45.048;5.062;2023-05-16T00:52:50;99351.00;;;13.81;87.93
57376;BME280;44805;45.048;5.062;2023-05-16T00:55:16;99346.66;;;13.88;88.17
57376;BME280;44805;45.048;5.062;2023-05-16T00:57:41;99325.53;;;13.65;88.17
57376;BME280;44805;45.048;5.062;2023-05-16T01:00:07;99356.88;;;13.91;88.71
57376;BME280;44805;45.048;5.062;2023-05-16T01:02:36;99349.13;;;13.89;88.12
57376;BME280;44805;45.048;5.062;2023-05-16T01:05:02;99349.13;;;13.89;88.51
57376;BME280;44805;45.048;5.062;2023-05-16T01:07:33;99357.44;;;14.01;87.87
57376;BME280;44805;45.048;5.062;2023-05-16T01:09:59;99306.19;;;13.64;88.12
57376;BME280;44805;45.048;5.062;2023-05-16T01:13:00;99353.03;;;13.94;88.35
57376;BME280;44805;45.048;5.062;2023-05-16T01:15:36;99341.38;;;13.88;87.92
57376;BME280;44805;45.048;5.062;2023-05-16T01:24:20;99353.72;;;13.73;89.60
57376;BME280;44805;45.048;5.062;2023-05-16T01:26:34;99345.06;;;13.64;90.00
57376;BME280;44805;45.048;5.062;2023-05-16T01:29:00;99331.06;;;13.55;88.93
57376;BME280;44805;45.048;5.062;2023-05-16T01:31:26;99287.66;;;13.27;88.84
57376;BME280;44805;45.048;5.062;2023-05-16T01:33:52;99299.53;;;13.31;88.59
57376;BME280;44805;45.048;5.062;2023-05-16T01:44:09;99274.19;;;13.13;89.11
57376;BME280;44805;45.048;5.062;2023-05-16T01:46:37;99349.28;;;13.50;89.36
57376;BME280;44805;45.048;5.062;2023-05-16T01:49:09;99342.34;;;13.49;89.03
57376;BME280;44805;45.048;5.062;2023-05-16T01:51:42;99328.94;;;13.28;89.08
57376;BME280;44805;45.048;5.062;2023-05-16T01:54:11;99319.06;;;13.21;89.54
57376;BME280;44805;45.048;5.062;2023-05-16T01:56:38;99325.41;;;13.35;89.57
57376;BME280;44805;45.048;5.062;2023-05-16T01:59:04;99334.94;;;13.44;89.08
57376;BME280;44805;45.048;5.062;2023-05-16T02:01:30;99334.50;;;13.41;89.49
57376;BME280;44805;45.048;5.062;2023-05-16T02:03:57;99342.34;;;13.49;89.35
57376;BME280;44805;45.048;5.062;2023-05-16T02:06:22;99322.09;;;13.41;89.36
57376;BME280;44805;45.048;5.062;2023-05-16T02:08:48;99264.94;;;12.86;89.86
57376;BME280;44805;45.048;5.062;2023-05-16T02:11:14;99314.59;;;13.22;89.96
57376;BME280;44805;45.048;5.062;2023-05-16T02:13:39;99336.66;;;13.37;90.54
57376;BME280;44805;45.048;5.062;2023-05-16T02:16:04;99260.91;;;12.98;89.87
57376;BME280;44805;45.048;5.062;2023-05-16T02:18:30;99311.38;;;13.35;90.21
57376;BME280;44805;45.048;5.062;2023-05-16T02:20:56;99337.06;;;13.49;89.33
57376;BME280;44805;45.048;5.062;2023-05-16T02:23:21;99336.78;;;13.44;90.15
57376;BME280;44805;45.048;5.062;2023-05-16T02:25:46;99285.56;;;13.14;89.75
57376;BME280;44805;45.048;5.062;2023-05-16T02:28:12;99323.63;;;13.36;90.53
57376;BME280;44805;45.048;5.062;2023-05-16T02:30:37;99311.44;;;13.27;90.29
57376;BME280;44805;45.048;5.062;2023-05-16T02:33:03;99283.09;;;13.12;90.75
57376;BME280;44805;45.048;5.062;2023-05-16T02:35:28;99261.00;;;13.05;89.87
57376;BME280;44805;45.048;5.062;2023-05-16T02:37:53;99337.44;;;13.46;90.38
57376;BME280;44805;45.048;5.062;2023-05-16T02:40:20;99262.06;;;12.96;91.16
57376;BME280;44805;45.048;5.062;2023-05-16T02:42:45;99303.19;;;13.21;90.71
57376;BME280;44805;45.048;5.062;2023-05-16T02:45:10;99326.06;;;13.37;90.54
57376;BME280;44805;45.048;5.062;2023-05-16T02:47:36;99282.50;;;13.25;90.16
57376;BME280;44805;45.048;5.062;2023-05-16T02:50:02;99329.50;;;13.46;90.51
57376;BME280;44805;45.048;5.062;2023-05-16T02:52:27;99295.72;;;13.25;91.19
57376;BME280;44805;45.048;5.062;2023-05-16T02:54:53;99307.78;;;13.28;90.61
57376;BME280;44805;45.048;5.062;2023-05-16T02:57:18;99273.38;;;13.13;90.75
57376;BME280;44805;45.048;5.062;2023-05-16T02:59:44;99320.97;;;13.36;91.06
57376;BME280;44805;45.048;5.062;2023-05-16T03:02:09;99318.63;;;13.41;91.03
57376;BME280;44805;45.048;5.062;2023-05-16T03:04:35;99321.84;;;13.51;90.54
57376;BME280;44805;45.048;5.062;2023-05-16T03:07:01;99310.41;;;13.36;90.88
57376;BME280;44805;45.048;5.062;2023-05-16T03:09:26;99308.81;;;13.27;91.17
57376;BME280;44805;45.048;5.062;2023-05-16T03:11:52;99268.75;;;13.07;90.77
57376;BME280;44805;45.048;5.062;2023-05-16T03:14:17;99310.97;;;13.23;91.43
57376;BME280;44805;45.048;5.062;2023-05-16T03:16:43;99317.75;;;13.17;91.92
57376;BME280;44805;45.048;5.062;2023-05-16T03:19:09;99313.63;;;13.15;92.03
57376;BME280;44805;45.048;5.062;2023-05-16T03:21:34;99325.31;;;13.29;91.75
57376;BME280;44805;45.048;5.062;2023-05-16T03:24:03;99263.47;;;12.84;92.31
57376;BME280;44805;45.048;5.062;2023-05-16T03:26:29;99315.41;;;13.22;92.02
57376;BME280;44805;45.048;5.062;2023-05-16T03:28:54;99323.88;;;13.18;92.37
57376;BME280;44805;45.048;5.062;2023-05-16T03:31:19;99325.69;;;13.17;92.16
57376;BME280;44805;45.048;5.062;2023-05-16T03:33:45;99312.16;;;13.12;91.82
57376;BME280;44805;45.048;5.062;2023-05-16T03:36:10;99326.97;;;13.21;91.56
57376;BME280;44805;45.048;5.062;2023-05-16T03:38:36;99322.03;;;13.27;91.40
57376;BME280;44805;45.048;5.062;2023-05-16T03:41:01;99275.63;;;12.93;91.87
57376;BME280;44805;45.048;5.062;2023-05-16T03:43:27;99325.97;;;13.22;92.11
57376;BME280;44805;45.048;5.062;2023-05-16T03:45:53;99311.84;;;13.15;91.47
57376;BME280;44805;45.048;5.062;2023-05-16T03:48:18;99324.16;;;13.31;91.38
57376;BME280;44805;45.048;5.062;2023-05-16T03:50:44;99323.16;;;13.24;91.71
57376;BME280;44805;45.048;5.062;2023-05-16T03:53:09;99306.06;;;13.12;91.59
57376;BME280;44805;45.048;5.062;2023-05-16T03:55:36;99280.16;;;13.07;90.78
57376;BME280;44805;45.048;5.062;2023-05-16T03:58:01;99310.81;;;13.16;91.56
57376;BME280;44805;45.048;5.062;2023-05-16T04:00:27;99286.22;;;13.16;90.59
57376;BME280;44805;45.048;5.062;2023-05-16T04:02:52;99268.34;;;12.95;90.52
57376;BME280;44805;45.048;5.062;2023-05-16T04:05:17;99316.88;;;13.33;91.38
57376;BME280;44805;45.048;5.062;2023-05-16T04:07:43;99270.00;;;12.96;91.09
57376;BME280;44805;45.048;5.062;2023-05-16T04:10:09;99323.94;;;13.33;90.94
57376;BME280;44805;45.048;5.062;2023-05-16T04:12:40;99318.22;;;13.21;91.76
57376;BME280;44805;45.048;5.062;2023-05-16T04:15:05;99313.84;;;13.36;90.97
57376;BME280;44805;45.048;5.062;2023-05-16T04:17:32;99300.09;;;13.18;91.38
57376;BME280;44805;45.048;5.062;2023-05-16T04:19:57;99277.13;;;13.18;90.52
57376;BME280;44805;45.048;5.062;2023-05-16T04:22:23;99290.84;;;13.14;91.02
57376;BME280;44805;45.048;5.062;2023-05-16T04:24:49;99298.00;;;13.36;90.87
57376;BME280;44805;45.048;5.062;2023-05-16T04:27:14;99318.63;;;13.41;89.88
57376;BME280;44805;45.048;5.062;2023-05-16T04:29:40;99245.97;;;12.82;91.09
57376;BME280;44805;45.048;5.062;2023-05-16T04:32:06;99264.41;;;12.91;91.35
57376;BME280;44805;45.048;5.062;2023-05-16T04:34:32;99293.88;;;13.02;91.45
57376;BME280;44805;45.048;5.062;2023-05-16T04:36:58;99300.41;;;13.15;90.89
57376;BME280;44805;45.048;5.062;2023-05-16T04:39:24;99275.69;;;13.08;90.71
57376;BME280;44805;45.048;5.062;2023-05-16T04:41:50;99322.50;;;13.22;91.28
57376;BME280;44805;45.048;5.062;2023-05-16T04:47:28;99274.69;;;12.86;91.28
57376;BME280;44805;45.048;5.062;2023-05-16T04:49:53;99266.69;;;12.94;92.18
57376;BME280;44805;45.048;5.062;2023-05-16T04:52:18;99319.13;;;13.13;92.08
57376;BME280;44805;45.048;5.062;2023-05-16T04:54:44;99321.25;;;13.10;91.61
57376;BME280;44805;45.048;5.062;2023-05-16T04:57:12;99317.63;;;13.11;91.94
57376;BME280;44805;45.048;5.062;2023-05-16T04:59:59;99316.13;;;13.16;91.83
57376;BME280;44805;45.048;5.062;2023-05-16T05:02:25;99320.00;;;13.06;92.09
57376;BME280;44805;45.048;5.062;2023-05-16T05:04:51;99272.09;;;12.77;92.38
57376;BME280;44805;45.048;5.062;2023-05-16T05:07:16;99326.09;;;13.06;92.12
57376;BME280;44805;45.048;5.062;2023-05-16T05:09:41;99311.41;;;13.03;92.48
57376;BME280;44805;45.048;5.062;2023-05-16T05:12:08;99275.41;;;12.71;93.38
57376;BME280;44805;45.048;5.062;2023-05-16T05:14:33;99270.66;;;12.67;93.56
57376;BME280;44805;45.048;5.062;2023-05-16T05:16:59;99311.22;;;13.05;93.16
57376;BME280;44805;45.048;5.062;2023-05-16T05:19:25;99317.63;;;13.11;92.96
57376;BME280;44805;45.048;5.062;2023-05-16T05:21:51;99241.56;;;12.44;93.10
57376;BME280;44805;45.048;5.062;2023-05-16T05:24:16;99317.22;;;12.99;92.66
57376;BME280;44805;45.048;5.062;2023-05-16T05:26:42;99253.69;;;12.61;92.41
57376;BME280;44805;45.048;5.062;2023-05-16T05:29:07;99258.41;;;12.74;91.63
57376;BME280;44805;45.048;5.062;2023-05-16T05:31:33;99257.78;;;12.64;91.73
57376;BME280;44805;45.048;5.062;2023-05-16T05:33:59;99255.59;;;12.75;92.36
57376;BME280;44805;45.048;5.062;2023-05-16T05:36:25;99231.28;;;12.49;91.69
57376;BME280;44805;45.048;5.062;2023-05-16T05:38:50;99270.75;;;12.81;92.41
57376;BME280;44805;45.048;5.062;2023-05-16T05:41:16;99265.25;;;12.60;91.91
57376;BME280;44805;45.048;5.062;2023-05-16T05:43:41;99286.94;;;12.78;91.25
57376;BME280;44805;45.048;5.062;2023-05-16T05:46:07;99329.72;;;13.05;92.11
57376;BME280;44805;45.048;5.062;2023-05-16T05:48:33;99291.06;;;12.81;91.46
57376;BME280;44805;45.048;5.062;2023-05-16T05:50:58;99265.31;;;12.52;91.59
57376;BME280;44805;45.048;5.062;2023-05-16T05:53:24;99271.78;;;12.72;91.95
57376;BME280;44805;45.048;5.062;2023-05-16T05:55:49;99302.75;;;12.87;91.56
57376;BME280;44805;45.048;5.062;2023-05-16T05:58:15;99327.25;;;13.03;91.64
57376;BME280;44805;45.048;5.062;2023-05-16T06:00:51;99278.47;;;12.60;91.13
57376;BME280;44805;45.048;5.062;2023-05-16T06:03:17;99272.38;;;12.59;92.24
57376;BME280;44805;45.048;5.062;2023-05-16T06:05:42;99267.19;;;12.66;90.67
57376;BME280;44805;45.048;5.062;2023-05-16T06:08:08;99270.53;;;12.60;91.33
57376;BME280;44805;45.048;5.062;2023-05-16T06:10:34;99325.50;;;12.96;90.22
57376;BME280;44805;45.048;5.062;2023-05-16T06:12:59;99326.78;;;13.00;90.92
57376;BME280;44805;45.048;5.062;2023-05-16T06:15:25;99255.66;;;12.67;89.74
57376;BME280;44805;45.048;5.062;2023-05-16T06:17:51;99298.75;;;12.91;89.90
57376;BME280;44805;45.048;5.062;2023-05-16T06:20:16;99305.38;;;12.87;89.62
57376;BME280;44805;45.048;5.062;2023-05-16T06:22:41;99297.09;;;12.90;90.18
57376;BME280;44805;45.048;5.062;2023-05-16T06:25:07;99258.00;;;12.62;90.39
57376;BME280;44805;45.048;5.062;2023-05-16T06:27:33;99228.34;;;12.52;90.35
57376;BME280;44805;45.048;5.062;2023-05-16T06:29:58;99316.34;;;13.07;90.17
57376;BME280;44805;45.048;5.062;2023-05-16T06:32:24;99256.63;;;12.66;89.71
57376;BME280;44805;45.048;5.062;2023-05-16T06:34:50;99226.91;;;12.64;89.82
57376;BME280;44805;45.048;5.062;2023-05-16T06:37:16;99290.88;;;12.82;89.16
57376;BME280;44805;45.048;5.062;2023-05-16T06:39:41;99230.44;;;12.56;88.90
57376;BME280;44805;45.048;5.062;2023-05-16T06:42:07;99302.00;;;13.01;89.22
57376;BME280;44805;45.048;5.062;2023-05-16T06:44:35;99252.88;;;12.60;89.60
57376;BME280;44805;45.048;5.062;2023-05-16T06:47:01;99253.13;;;12.74;89.45
57376;BME280;44805;45.048;5.062;2023-05-16T06:49:26;99287.69;;;12.95;89.52
57376;BME280;44805;45.048;5.062;2023-05-16T06:51:51;99264.63;;;12.81;88.58
57376;BME280;44805;45.048;5.062;2023-05-16T06:54:17;99275.19;;;12.81;89.44
57376;BME280;44805;45.048;5.062;2023-05-16T06:56:43;99268.28;;;12.80;89.02
57376;BME280;44805;45.048;5.062;2023-05-16T06:59:09;99303.19;;;13.21;87.55
57376;BME280;44805;45.048;5.062;2023-05-16T07:01:34;99287.13;;;13.31;87.04
57376;BME280;44805;45.048;5.062;2023-05-16T07:04:00;99240.63;;;12.91;87.62
57376;BME280;44805;45.048;5.062;2023-05-16T07:06:25;99253.06;;;13.05;86.99
57376;BME280;44805;45.048;5.062;2023-05-16T07:08:51;99307.03;;;13.42;86.84
57376;BME280;44805;45.048;5.062;2023-05-16T07:11:16;99254.44;;;13.24;85.80
57376;BME280;44805;45.048;5.062;2023-05-16T07:13:42;99310.03;;;13.39;86.32
57376;BME280;44805;45.048;5.062;2023-05-16T07:16:07;99253.03;;;13.13;86.06
57376;BME280;44805;45.048;5.062;2023-05-16T07:18:33;99313.66;;;13.38;86.63
57376;BME280;44805;45.048;5.062;2023-05-16T07:20:58;99307.94;;;13.26;85.27
57376;BME280;44805;45.048;5.062;2023-05-16T07:23:24;99240.78;;;12.66;86.54
57376;BME280;44805;45.048;5.062;2023-05-16T07:25:49;99316.22;;;13.31;86.72
57376;BME280;44805;45.048;5.062;2023-05-16T07:28:15;99307.41;;;13.39;86.15
57376;BME280;44805;45.048;5.062;2023-05-16T07:33:56;99197.13;;;12.78;84.35
57376;BME280;44805;45.048;5.062;2023-05-16T07:36:22;99293.66;;;13.58;84.83
57376;BME280;44805;45.048;5.062;2023-05-16T07:38:47;99270.16;;;13.17;84.41
57376;BME280;44805;45.048;5.062;2023-05-16T07:41:12;99213.78;;;13.02;84.71
57376;BME280;44805;45.048;5.062;2023-05-16T07:43:38;99274.75;;;13.23;83.65
57376;BME280;44805;45.048;5.062;2023-05-16T07:46:04;99239.84;;;13.05;84.21
57376;BME280;44805;45.048;5.062;2023-05-16T07:48:30;99245.09;;;12.90;84.23
57376;BME280;44805;45.048;5.062;2023-05-16T07:50:55;99249.25;;;13.08;84.48
57376;BME280;44805;45.048;5.062;2023-05-16T07:53:21;99254.78;;;12.98;84.02
57376;BME280;44805;45.048;5.062;2023-05-16T07:55:47;99302.84;;;13.48;82.91
57376;BME280;44805;45.048;5.062;2023-05-16T07:58:13;99212.81;;;13.03;82.86
57376;BME280;44805;45.048;5.062;2023-05-16T08:00:39;99252.66;;;13.16;82.12
57376;BME280;44805;45.048;5.062;2023-05-16T08:03:04;99233.75;;;13.04;82.30
57376;BME280;44805;45.048;5.062;2023-05-16T08:05:31;99275.13;;;13.20;83.24
57376;BME280;44805;45.048;5.062;2023-05-16T08:07:56;99260.19;;;13.28;81.46
57376;BME280;44805;45.048;5.062;2023-05-16T08:10:22;99250.44;;;13.51;80.70
57376;BME280;44805;45.048;5.062;2023-05-16T08:12:48;99265.28;;;13.52;81.44
57376;BME280;44805;45.048;5.062;2023-05-16T08:15:13;99299.34;;;13.70;83.05
57376;BME280;44805;45.048;5.062;2023-05-16T08:17:39;99316.69;;;13.73;84.28
57376;BME280;44805;45.048;5.062;2023-05-16T08:20:05;99269.94;;;13.50;83.68
57376;BME280;44805;45.048;5.062;2023-05-16T08:22:31;99299.03;;;13.88;83.82
57376;BME280;44805;45.048;5.062;2023-05-16T08:24:57;99308.31;;;13.69;82.41
57376;BME280;44805;45.048;5.062;2023-05-16T08:27:27;99219.78;;;12.96;84.24
57376;BME280;44805;45.048;5.062;2023-05-16T08:33:08;99324.50;;;13.51;85.65
57376;BME280;44805;45.048;5.062;2023-05-16T08:35:34;99309.56;;;13.35;85.62
57376;BME280;44805;45.048;5.062;2023-05-16T08:38:00;99305.78;;;13.53;83.51
57376;BME280;44805;45.048;5.062;2023-05-16T08:40:27;99350.06;;;13.74;82.00
57376;BME280;44805;45.048;5.062;2023-05-16T08:42:53;99325.13;;;13.53;82.80
57376;BME280;44805;45.048;5.062;2023-05-16T08:45:21;99243.66;;;13.02;82.51
57376;BME280;44805;45.048;5.062;2023-05-16T08:47:48;99295.13;;;13.46;82.04
57376;BME280;44805;45.048;5.062;2023-05-16T08:50:15;99320.69;;;13.68;82.18
57376;BME280;44805;45.048;5.062;2023-05-16T08:52:41;99339.97;;;13.77;82.50
57376;BME280;44805;45.048;5.062;2023-05-16T08:55:08;99295.13;;;13.46;83.13
57376;BME280;44805;45.048;5.062;2023-05-16T08:57:34;99310.56;;;13.34;83.11
57376;BME280;44805;45.048;5.062;2023-05-16T09:00:12;99337.72;;;13.20;83.69
57376;BME280;44805;45.048;5.062;2023-05-16T09:02:40;99282.19;;;13.28;83.20
57376;BME280;44805;45.048;5.062;2023-05-16T09:05:07;99314.19;;;13.56;82.29
57376;BME280;44805;45.048;5.062;2023-05-16T09:07:33;99346.44;;;13.75;81.40
57376;BME280;44805;45.048;5.062;2023-05-16T09:09:59;99288.16;;;13.45;81.20
57376;BME280;44805;45.048;5.062;2023-05-16T09:12:24;99322.88;;;13.65;81.60
57376;BME280;44805;45.048;5.062;2023-05-16T09:17:59;99278.59;;;13.82;79.38
57376;BME280;44805;45.048;5.062;2023-05-16T09:20:25;99338.00;;;14.09;80.55
57376;BME280;44805;45.048;5.062;2023-05-16T09:22:58;99282.69;;;13.84;80.19
57376;BME280;44805;45.048;5.062;2023-05-16T09:25:29;99341.69;;;14.23;80.96
57376;BME280;44805;45.048;5.062;2023-05-16T09:30:33;99283.81;;;13.52;80.07
57376;BME280;44805;45.048;5.062;2023-05-16T09:32:59;99296.47;;;13.42;80.94
57376;BME280;44805;45.048;5.062;2023-05-16T09:35:25;99354.19;;;13.76;81.39
57376;BME280;44805;45.048;5.062;2023-05-16T09:37:51;99370.84;;;13.39;83.21
57376;BME280;44805;45.048;5.062;2023-05-16T09:40:20;99344.16;;;13.25;82.42
57376;BME280;44805;45.048;5.062;2023-05-16T09:42:46;99301.78;;;13.11;82.04
57376;BME280;44805;45.048;5.062;2023-05-16T09:45:12;99372.31;;;13.41;82.42
57376;BME280;44805;45.048;5.062;2023-05-16T09:47:38;99338.69;;;13.27;82.34
57376;BME280;44805;45.048;5.062;2023-05-16T09:50:12;99319.63;;;13.09;83.03
57376;BME280;44805;45.048;5.062;2023-05-16T09:52:38;99335.75;;;13.45;82.08
57376;BME280;44805;45.048;5.062;2023-05-16T09:55:08;99354.75;;;13.72;80.22
57376;BME280;44805;45.048;5.062;2023-05-16T09:57:37;99355.03;;;13.92;79.79
57376;BME280;44805;45.048;5.062;2023-05-16T10:00:06;99335.75;;;13.45;81.17
57376;BME280;44805;45.048;5.062;2023-05-16T10:02:36;99363.28;;;13.59;80.89
57376;BME280;44805;45.048;5.062;2023-05-16T10:05:02;99376.81;;;13.41;82.82
57376;BME280;44805;45.048;5.062;2023-05-16T10:07:30;99275.38;;;12.79;83.27
57376;BME280;44805;45.048;5.062;2023-05-16T10:10:00;99347.75;;;13.33;83.05
57376;BME280;44805;45.048;5.062;2023-05-16T10:12:28;99330.84;;;13.42;82.05
57376;BME280;44805;45.048;5.062;2023-05-16T10:14:55;99328.31;;;13.49;81.80
57376;BME280;44805;45.048;5.062;2023-05-16T10:17:21;99325.78;;;13.32;81.44
57376;BME280;44805;45.048;5.062;2023-05-16T10:19:47;99363.16;;;13.29;82.14
57376;BME280;44805;45.048;5.062;2023-05-16T10:22:13;99302.97;;;13.08;82.88
57376;BME280;44805;45.048;5.062;2023-05-16T10:25:14;99279.50;;;13.05;82.33
57376;BME280;44805;45.048;5.062;2023-05-16T10:27:42;99358.06;;;13.88;79.86
57376;BME280;44805;45.048;5.062;2023-05-16T10:30:09;99361.84;;;13.48;81.61
57376;BME280;44805;45.048;5.062;2023-05-16T10:32:35;99348.09;;;13.30;82.00
57376;BME280;44805;45.048;5.062;2023-05-16T10:35:02;99343.28;;;13.56;82.25
57376;BME280;44805;45.048;5.062;2023-05-16T10:37:30;99341.19;;;13.52;81.74
57376;BME280;44805;45.048;5.062;2023-05-16T10:39:57;99317.19;;;13.30;81.78
57376;BME280;44805;45.048;5.062;2023-05-16T10:42:23;99296.59;;;13.17;82.71
57376;BME280;44805;45.048;5.062;2023-05-16T10:44:53;99286.63;;;13.28;81.57
57376;BME280;44805;45.048;5.062;2023-05-16T10:47:19;99272.28;;;13.45;79.60
57376;BME280;44805;45.048;5.062;2023-05-16T10:49:44;99348.81;;;14.22;78.46
57376;BME280;44805;45.048;5.062;2023-05-16T10:52:11;99299.75;;;13.82;78.82
57376;BME280;44805;45.048;5.062;2023-05-16T10:54:42;99323.78;;;14.40;77.63
57376;BME280;44805;45.048;5.062;2023-05-16T10:57:18;99337.50;;;14.28;78.88
57376;BME280;44805;45.048;5.062;2023-05-16T10:59:48;99333.38;;;14.26;78.40
57376;BME280;44805;45.048;5.062;2023-05-16T11:02:28;99276.84;;;13.74;78.75
57376;BME280;44805;45.048;5.062;2023-05-16T11:04:55;99344.16;;;14.09;78.62
57376;BME280;44805;45.048;5.062;2023-05-16T11:07:24;99310.09;;;13.68;79.51
57376;BME280;44805;45.048;5.062;2023-05-16T11:12:37;99366.84;;;14.04;78.12
57376;BME280;44805;45.048;5.062;2023-05-16T11:15:26;99351.00;;;14.19;78.41
57376;BME280;44805;45.048;5.062;2023-05-16T11:18:08;99355.53;;;13.95;78.49
57376;BME280;44805;45.048;5.062;2023-05-16T11:20:36;99344.13;;;13.95;78.20
57376;BME280;44805;45.048;5.062;2023-05-16T11:25:41;99355.44;;;14.03;78.88
57376;BME280;44805;45.048;5.062;2023-05-16T11:28:07;99366.13;;;13.95;78.23
57376;BME280;44805;45.048;5.062;2023-05-16T11:30:34;99359.03;;;14.10;77.97
57376;BME280;44805;45.048;5.062;2023-05-16T11:33:00;99361.75;;;14.32;77.16
57376;BME280;44805;45.048;5.062;2023-05-16T11:35:26;99330.44;;;14.21;76.76
57376;BME280;44805;45.048;5.062;2023-05-16T11:37:52;99363.16;;;14.43;76.76
57376;BME280;44805;45.048;5.062;2023-05-16T11:40:18;99327.16;;;14.19;75.71
57376;BME280;44805;45.048;5.062;2023-05-16T11:42:45;99341.75;;;14.00;77.16
57376;BME280;44805;45.048;5.062;2023-05-16T11:45:14;99359.69;;;14.27;77.14
57376;BME280;44805;45.048;5.062;2023-05-16T11:47:43;99299.13;;;13.95;75.89
57376;BME280;44805;45.048;5.062;2023-05-16T11:50:13;99287.16;;;14.14;75.10
57376;BME280;44805;45.048;5.062;2023-05-16T11:52:42;99321.81;;;13.89;76.42
57376;BME280;44805;45.048;5.062;2023-05-16T11:55:08;99331.72;;;13.95;76.90
57376;BME280;44805;45.048;5.062;2023-05-16T11:57:39;99311.97;;;13.83;76.76
57376;BME280;44805;45.048;5.062;2023-05-16T12:00:14;99366.63;;;14.43;75.48
57376;BME280;44805;45.048;5.062;2023-05-16T12:02:44;99348.38;;;14.63;74.60
57376;BME280;44805;45.048;5.062;2023-05-16T12:05:12;99331.00;;;14.31;75.27
57376;BME280;44805;45.048;5.062;2023-05-16T12:07:37;99351.09;;;14.40;74.50
57376;BME280;44805;45.048;5.062;2023-05-16T12:10:10;99356.41;;;14.70;74.15
57376;BME280;44805;45.048;5.062;2023-05-16T12:12:39;99320.69;;;14.51;73.68
57376;BME280;44805;45.048;5.062;2023-05-16T12:15:05;99310.06;;;13.92;75.34
57376;BME280;44805;45.048;5.062;2023-05-16T12:17:36;99354.19;;;13.99;76.41
57376;BME280;44805;45.048;5.062;2023-05-16T12:20:03;99384.09;;;14.00;76.57
57376;BME280;44805;45.048;5.062;2023-05-16T12:22:38;99293.91;;;13.72;76.12
57376;BME280;44805;45.048;5.062;2023-05-16T12:25:34;99409.88;;;14.21;75.98
57376;BME280;44805;45.048;5.062;2023-05-16T12:28:03;99381.41;;;14.23;75.61
57376;BME280;44805;45.048;5.062;2023-05-16T12:30:30;99322.00;;;13.73;75.53
57376;BME280;44805;45.048;5.062;2023-05-16T12:33:07;99389.06;;;14.18;75.44
57376;BME280;44805;45.048;5.062;2023-05-16T12:35:36;99376.06;;;13.93;77.02
57376;BME280;44805;45.048;5.062;2023-05-16T12:38:05;99350.00;;;14.20;75.29
57376;BME280;44805;45.048;5.062;2023-05-16T12:40:31;99338.84;;;14.39;73.73
57376;BME280;44805;45.048;5.062;2023-05-16T12:42:57;99297.69;;;14.07;73.60
57376;BME280;44805;45.048;5.062;2023-05-16T12:45:24;99379.69;;;14.89;72.23
57376;BME280;44805;45.048;5.062;2023-05-16T12:47:52;99332.63;;;14.91;72.13
57376;BME280;44805;45.048;5.062;2023-05-16T12:50:17;99381.97;;;14.77;73.15
57376;BME280;44805;45.048;5.062;2023-05-16T12:52:51;99366.09;;;14.63;72.73
57376;BME280;44805;45.048;5.062;2023-05-16T12:55:18;99379.91;;;14.58;72.90
57376;BME280;44805;45.048;5.062;2023-05-16T12:57:44;99376.47;;;14.49;72.34
57376;BME280;44805;45.048;5.062;2023-05-16T13:00:12;99360.53;;;13.90;74.92
57376;BME280;44805;45.048;5.062;2023-05-16T13:02:47;99357.59;;;13.85;74.51
57376;BME280;44805;45.048;5.062;2023-05-16T13:05:13;99355.94;;;13.84;75.18
57376;BME280;44805;45.048;5.062;2023-05-16T13:07:39;99404.41;;;14.37;74.61
57376;BME280;44805;45.048;5.062;2023-05-16T13:10:11;99358.28;;;14.02;74.41
57376;BME280;44805;45.048;5.062;2023-05-16T13:12:39;99312.34;;;13.80;74.20
57376;BME280;44805;45.048;5.062;2023-05-16T13:15:05;99405.25;;;13.85;75.34
57376;BME280;44805;45.048;5.062;2023-05-16T13:17:35;99414.94;;;14.30;74.36
57376;BME280;44805;45.048;5.062;2023-05-16T13:20:01;99360.84;;;14.10;74.54
57376;BME280;44805;45.048;5.062;2023-05-16T13:22:29;99326.66;;;13.85;73.86
57376;BME280;44805;45.048;5.062;2023-05-16T13:24:55;99377.38;;;14.12;74.51
57376;BME280;44805;45.048;5.062;2023-05-16T13:27:20;99319.25;;;13.81;74.01
57376;BME280;44805;45.048;5.062;2023-05-16T13:29:46;99377.06;;;13.92;75.02
57376;BME280;44805;45.048;5.062;2023-05-16T13:32:11;99409.56;;;14.01;75.60
57376;BME280;44805;45.048;5.062;2023-05-16T13:34:37;99395.59;;;13.92;74.76